createdAt,value
2023-07-16T00:00:41.868Z,3.42
2023-07-16T00:01:43.315Z,4.68
2023-07-16T00:02:44.880Z,3.53
2023-07-16T00:03:49.016Z,3.50
2023-07-16T00:04:50.693Z,5.78
2023-07-16T00:05:52.593Z,8.23
2023-07-16T00:06:54.281Z,4.18
2023-07-16T00:07:55.670Z,3.20
2023-07-16T00:08:59.090Z,4.38
2023-07-16T00:10:00.578Z,4.05
2023-07-16T00:11:09.402Z,193.95
2023-07-16T00:12:11.119Z,131.30
2023-07-16T00:13:16.685Z,75.07
2023-07-16T00:14:18.877Z,56.22
2023-07-16T00:15:20.477Z,28.52
2023-07-16T00:16:22.593Z,12.38
2023-07-16T00:17:24.269Z,13.52
2023-07-16T00:18:25.686Z,10.25
2023-07-16T00:19:27.068Z,5.18
2023-07-16T00:20:28.451Z,4.35
2023-07-16T00:21:30.260Z,3.95
2023-07-16T00:22:31.749Z,5.38
2023-07-16T00:23:33.190Z,5.28
2023-07-16T00:24:34.559Z,5.78
2023-07-16T00:25:36.276Z,3.10
2023-07-16T00:26:37.707Z,4.47
2023-07-16T00:27:39.058Z,4.40
2023-07-16T00:28:40.598Z,2.65
2023-07-16T00:29:42.048Z,4.05
2023-07-16T00:30:43.449Z,3.58
2023-07-16T00:31:44.906Z,2.33
2023-07-16T00:32:46.318Z,3.63
2023-07-16T00:33:47.789Z,2.90
2023-07-16T00:34:49.200Z,4.00
2023-07-16T00:35:50.680Z,5.22
2023-07-16T00:36:52.244Z,3.80
2023-07-16T00:37:53.636Z,6.57
2023-07-16T00:38:55.077Z,3.60
2023-07-16T00:39:56.395Z,3.38
2023-07-16T00:40:58.168Z,4.18
2023-07-16T00:41:59.539Z,6.65
2023-07-16T00:43:00.977Z,3.92
2023-07-16T00:44:02.394Z,4.80
2023-07-16T00:45:04.839Z,3.08
2023-07-16T00:46:06.390Z,4.88
2023-07-16T00:47:07.860Z,3.05
2023-07-16T00:48:10.300Z,4.40
2023-07-16T00:49:11.802Z,2.58
2023-07-16T00:50:13.733Z,2.88
2023-07-16T00:51:15.389Z,4.32
2023-07-16T00:52:18.848Z,2.83
2023-07-16T00:53:20.878Z,2.30
2023-07-16T00:54:23.249Z,4.07
2023-07-16T00:55:24.680Z,3.60
2023-07-16T00:56:26.076Z,3.10
2023-07-16T00:57:27.582Z,4.30
2023-07-16T00:58:29.097Z,3.17
2023-07-16T00:59:30.460Z,3.85
2023-07-16T01:00:34.414Z,2.45
2023-07-16T01:01:35.849Z,4.07
2023-07-16T01:02:37.460Z,2.38
2023-07-16T01:03:39.280Z,2.25
2023-07-16T01:04:40.767Z,4.00
2023-07-16T01:05:46.604Z,2.85
2023-07-16T01:06:50.881Z,2.65
2023-07-16T01:07:58.858Z,2.60
2023-07-16T01:09:04.943Z,1.67
2023-07-16T01:10:06.831Z,3.47
2023-07-16T01:11:08.626Z,2.83
2023-07-16T01:12:10.412Z,2.92
2023-07-16T01:13:11.818Z,2.92
2023-07-16T01:14:17.544Z,2.45
2023-07-16T01:15:18.937Z,2.08
2023-07-16T01:16:24.421Z,2.90
2023-07-16T01:17:26.026Z,2.50
2023-07-16T01:18:27.425Z,3.65
2023-07-16T01:19:28.821Z,3.50
2023-07-16T01:20:30.276Z,2.58
2023-07-16T01:21:39.117Z,3.40
2023-07-16T01:22:53.227Z,3.30
2023-07-16T01:23:57.760Z,2.05
2023-07-16T01:25:10.635Z,2.80
2023-07-16T01:26:14.995Z,3.28
2023-07-16T01:27:26.181Z,4.75
2023-07-16T01:28:45.617Z,4.85
2023-07-16T01:29:55.365Z,3.67
2023-07-16T01:30:59.662Z,3.53
2023-07-16T01:32:02.590Z,2.95
2023-07-16T01:33:04.916Z,2.65
2023-07-16T01:34:07.192Z,4.90
2023-07-16T01:35:09.085Z,4.07
2023-07-16T01:36:10.471Z,3.17
2023-07-16T01:37:11.866Z,3.53
2023-07-16T01:38:14.664Z,4.47
2023-07-16T01:39:17.259Z,4.57
2023-07-16T01:40:18.693Z,3.80
2023-07-16T01:41:20.120Z,4.03
2023-07-16T01:42:21.540Z,3.25
2023-07-16T01:43:22.904Z,3.00
2023-07-16T01:44:24.256Z,3.00
2023-07-16T01:45:26.153Z,5.40
2023-07-16T01:46:27.662Z,3.60
2023-07-16T01:47:33.536Z,3.67
2023-07-16T01:48:36.587Z,4.40
2023-07-16T01:49:38.479Z,5.68
2023-07-16T01:50:39.921Z,3.35
2023-07-16T01:51:41.281Z,3.33
2023-07-16T01:52:42.676Z,3.80
2023-07-16T01:53:44.069Z,3.33
2023-07-16T01:54:45.507Z,4.95
2023-07-16T01:55:47.336Z,4.80
2023-07-16T01:56:48.754Z,3.65
2023-07-16T01:57:50.166Z,7.20
2023-07-16T01:58:51.531Z,4.13
2023-07-16T01:59:53.021Z,4.05
2023-07-16T02:00:54.448Z,4.53
2023-07-16T02:01:55.894Z,4.78
2023-07-16T02:02:58.106Z,5.32
2023-07-16T02:03:59.600Z,3.97
2023-07-16T02:05:01.668Z,5.38
2023-07-16T02:06:03.352Z,6.43
2023-07-16T02:07:04.892Z,3.92
2023-07-16T02:08:06.275Z,4.78
2023-07-16T02:09:09.031Z,3.45
2023-07-16T02:10:10.459Z,4.43
2023-07-16T02:11:11.894Z,3.92
2023-07-16T02:12:13.292Z,5.15
2023-07-16T02:13:14.716Z,6.00
2023-07-16T02:14:17.090Z,3.90
2023-07-16T02:15:19.030Z,5.88
2023-07-16T02:16:20.480Z,3.83
2023-07-16T02:17:21.988Z,5.07
2023-07-16T02:18:23.432Z,3.60
2023-07-16T02:19:26.491Z,2.67
2023-07-16T02:20:27.868Z,4.05
2023-07-16T02:21:29.233Z,4.15
2023-07-16T02:22:30.820Z,3.97
2023-07-16T02:23:32.478Z,3.28
2023-07-16T02:24:33.851Z,4.18
2023-07-16T02:25:35.241Z,3.70
2023-07-16T02:26:36.850Z,4.68
2023-07-16T02:27:38.246Z,6.13
2023-07-16T02:28:39.590Z,3.65
2023-07-16T02:29:41.106Z,4.47
2023-07-16T02:30:43.116Z,2.78
2023-07-16T02:31:49.582Z,3.33
2023-07-16T02:32:51.332Z,3.95
2023-07-16T02:33:52.820Z,4.70
2023-07-16T02:34:54.224Z,3.40
2023-07-16T02:35:55.688Z,3.88
2023-07-16T02:36:57.140Z,4.30
2023-07-16T02:37:58.570Z,4.93
2023-07-16T02:39:01.476Z,4.25
2023-07-16T02:40:03.702Z,2.42
2023-07-16T02:41:05.201Z,4.38
2023-07-16T02:42:07.911Z,3.97
2023-07-16T02:43:09.385Z,3.80
2023-07-16T02:44:10.742Z,3.28
2023-07-16T02:45:12.207Z,7.78
2023-07-16T02:46:13.752Z,5.00
2023-07-16T02:47:15.512Z,3.17
2023-07-16T02:48:17.323Z,2.92
2023-07-16T02:49:18.776Z,3.55
2023-07-16T02:50:20.256Z,4.03
2023-07-16T02:51:21.646Z,2.90
2023-07-16T02:52:23.270Z,3.55
2023-07-16T02:53:24.675Z,5.10
2023-07-16T02:54:26.132Z,3.78
2023-07-16T02:55:27.506Z,6.82
2023-07-16T02:56:28.919Z,3.17
2023-07-16T02:57:30.759Z,5.18
2023-07-16T02:58:32.118Z,3.97
2023-07-16T02:59:35.508Z,5.50
2023-07-16T03:00:37.147Z,6.20
2023-07-16T03:01:38.806Z,5.80
2023-07-16T03:02:40.258Z,3.67
2023-07-16T03:03:41.717Z,3.35
2023-07-16T03:04:43.169Z,3.00
2023-07-16T03:05:44.564Z,4.68
2023-07-16T03:06:45.938Z,3.47
2023-07-16T03:07:47.384Z,3.47
2023-07-16T03:08:49.326Z,3.67
2023-07-16T03:09:52.866Z,4.65
2023-07-16T03:10:54.532Z,3.58
2023-07-16T03:11:55.932Z,2.63
2023-07-16T03:12:57.719Z,3.28
2023-07-16T03:13:59.078Z,3.58
2023-07-16T03:15:00.443Z,4.22
2023-07-16T03:16:01.993Z,8.48
2023-07-16T03:17:03.493Z,2.63
2023-07-16T03:18:05.776Z,5.70
2023-07-16T03:19:07.589Z,4.15
2023-07-16T03:20:09.391Z,6.47
2023-07-16T03:21:10.830Z,5.05
2023-07-16T03:22:12.945Z,4.32
2023-07-16T03:23:14.567Z,4.30
2023-07-16T03:24:15.979Z,5.13
2023-07-16T03:25:17.405Z,4.07
2023-07-16T03:26:19.085Z,4.70
2023-07-16T03:27:21.005Z,5.18
2023-07-16T03:28:29.411Z,5.88
2023-07-16T03:29:30.802Z,4.90
2023-07-16T03:30:32.406Z,3.13
2023-07-16T03:31:33.902Z,6.57
2023-07-16T03:32:51.224Z,4.18
2023-07-16T03:33:54.330Z,3.83
2023-07-16T03:34:57.236Z,4.95
2023-07-16T03:36:00.230Z,5.05
2023-07-16T03:37:01.683Z,6.90
2023-07-16T03:38:03.175Z,5.45
2023-07-16T03:39:05.059Z,6.28
2023-07-16T03:40:13.905Z,5.90
2023-07-16T03:41:15.412Z,5.95
2023-07-16T03:42:16.853Z,7.25
2023-07-16T03:43:18.259Z,4.95
2023-07-16T03:44:19.980Z,6.07
2023-07-16T03:45:21.519Z,5.95
2023-07-16T03:46:22.921Z,4.97
2023-07-16T03:47:24.410Z,6.45
2023-07-16T03:48:25.859Z,6.82
2023-07-16T03:49:27.277Z,4.00
2023-07-16T03:50:28.687Z,5.50
2023-07-16T03:51:31.004Z,6.85
2023-07-16T03:52:32.407Z,4.93
2023-07-16T03:53:33.831Z,6.15
2023-07-16T03:54:35.217Z,4.68
2023-07-16T03:55:37.431Z,4.43
2023-07-16T03:56:39.247Z,7.65
2023-07-16T03:57:41.064Z,6.65
2023-07-16T03:58:43.482Z,6.55
2023-07-16T03:59:44.858Z,5.20
2023-07-16T04:00:46.368Z,5.63
2023-07-16T04:01:47.835Z,8.30
2023-07-16T04:02:49.487Z,6.13
2023-07-16T04:03:52.905Z,5.18
2023-07-16T04:04:56.237Z,7.13
2023-07-16T04:06:07.075Z,4.75
2023-07-16T04:07:08.447Z,6.20
2023-07-16T04:08:09.838Z,5.10
2023-07-16T04:09:11.196Z,6.95
2023-07-16T04:10:12.625Z,6.57
2023-07-16T04:11:14.025Z,9.25
2023-07-16T04:12:15.428Z,4.35
2023-07-16T04:13:16.786Z,7.32
2023-07-16T04:14:18.171Z,6.80
2023-07-16T04:15:19.588Z,5.85
2023-07-16T04:16:21.046Z,5.90
2023-07-16T04:17:22.597Z,5.88
2023-07-16T04:18:24.328Z,7.32
2023-07-16T04:19:25.865Z,5.65
2023-07-16T04:20:27.264Z,6.07
2023-07-16T04:21:28.666Z,6.22
2023-07-16T04:22:30.083Z,4.82
2023-07-16T04:23:31.475Z,4.65
2023-07-16T04:24:32.959Z,8.05
2023-07-16T04:25:34.340Z,9.23
2023-07-16T04:26:35.781Z,6.45
2023-07-16T04:27:37.330Z,6.97
2023-07-16T04:28:40.312Z,7.97
2023-07-16T04:29:41.686Z,5.88
2023-07-16T04:30:43.179Z,5.20
2023-07-16T04:31:44.580Z,5.38
2023-07-16T04:32:45.990Z,7.57
2023-07-16T04:33:47.427Z,5.00
2023-07-16T04:34:48.871Z,6.13
2023-07-16T04:35:50.263Z,7.18
2023-07-16T04:36:51.695Z,6.32
2023-07-16T04:37:53.082Z,5.70
2023-07-16T04:38:55.040Z,7.93
2023-07-16T04:39:56.400Z,4.78
2023-07-16T04:40:57.755Z,6.63
2023-07-16T04:41:59.120Z,4.72
2023-07-16T04:43:00.469Z,6.05
2023-07-16T04:44:01.802Z,5.50
2023-07-16T04:45:03.788Z,5.40
2023-07-16T04:46:05.320Z,6.28
2023-07-16T04:47:06.763Z,4.22
2023-07-16T04:48:08.296Z,3.92
2023-07-16T04:49:09.753Z,6.07
2023-07-16T04:50:11.147Z,6.53
2023-07-16T04:51:12.546Z,4.20
2023-07-16T04:52:14.137Z,5.57
2023-07-16T04:53:18.645Z,5.97
2023-07-16T04:54:20.046Z,4.68
2023-07-16T04:55:21.390Z,4.55
2023-07-16T04:56:22.773Z,7.20
2023-07-16T04:57:24.146Z,4.10
2023-07-16T04:58:25.516Z,5.13
2023-07-16T04:59:26.907Z,5.47
2023-07-16T05:00:28.237Z,6.28
2023-07-16T05:01:29.633Z,3.97
2023-07-16T05:02:31.073Z,4.95
2023-07-16T05:03:32.438Z,5.68
2023-07-16T05:04:34.357Z,6.18
2023-07-16T05:05:36.101Z,3.72
2023-07-16T05:06:37.636Z,5.15
2023-07-16T05:07:39.017Z,4.07
2023-07-16T05:08:40.383Z,6.90
2023-07-16T05:09:42.643Z,4.40
2023-07-16T05:10:44.013Z,5.95
2023-07-16T05:11:45.375Z,8.30
2023-07-16T05:12:46.743Z,5.95
2023-07-16T05:13:48.092Z,6.38
2023-07-16T05:14:49.516Z,7.82
2023-07-16T05:15:51.048Z,4.72
2023-07-16T05:16:52.570Z,4.82
2023-07-16T05:17:54.147Z,5.90
2023-07-16T05:18:55.642Z,5.03
2023-07-16T05:19:57.023Z,6.13
2023-07-16T05:20:58.415Z,6.68
2023-07-16T05:21:59.768Z,4.50
2023-07-16T05:23:01.280Z,6.63
2023-07-16T05:24:02.721Z,3.88
2023-07-16T05:25:04.303Z,5.25
2023-07-16T05:26:06.145Z,4.90
2023-07-16T05:27:07.532Z,8.13
2023-07-16T05:28:08.904Z,5.25
2023-07-16T05:29:10.324Z,6.82
2023-07-16T05:30:11.838Z,5.28
2023-07-16T05:31:13.276Z,5.78
2023-07-16T05:32:14.885Z,4.68
2023-07-16T05:33:16.280Z,7.00
2023-07-16T05:34:17.774Z,6.50
2023-07-16T05:35:19.277Z,6.30
2023-07-16T05:36:20.678Z,6.00
2023-07-16T05:37:22.121Z,6.95
2023-07-16T05:38:23.583Z,5.65
2023-07-16T05:39:25.026Z,9.02
2023-07-16T05:40:26.469Z,4.63
2023-07-16T05:41:27.838Z,7.35
2023-07-16T05:42:29.183Z,4.13
2023-07-16T05:43:30.548Z,6.07
2023-07-16T05:44:31.994Z,6.57
2023-07-16T05:45:33.340Z,6.35
2023-07-16T05:46:35.246Z,6.20
2023-07-16T05:47:36.730Z,5.07
2023-07-16T05:48:38.117Z,6.68
2023-07-16T05:49:39.507Z,5.78
2023-07-16T05:50:40.897Z,7.18
2023-07-16T05:51:42.497Z,5.40
2023-07-16T05:52:43.869Z,6.75
2023-07-16T05:53:45.268Z,5.03
2023-07-16T05:54:46.664Z,6.75
2023-07-16T05:55:50.563Z,7.97
2023-07-16T05:56:52.020Z,4.00
2023-07-16T05:57:54.205Z,5.97
2023-07-16T05:58:55.716Z,4.93
2023-07-16T05:59:57.249Z,6.13
2023-07-16T06:00:58.663Z,4.40
2023-07-16T06:02:00.289Z,3.75
2023-07-16T06:03:02.970Z,3.08
2023-07-16T06:04:04.559Z,4.50
2023-07-16T06:05:06.600Z,4.30
2023-07-16T06:06:09.881Z,3.92
2023-07-16T06:07:11.271Z,6.28
2023-07-16T06:08:13.474Z,5.35
2023-07-16T06:09:14.899Z,4.40
2023-07-16T06:10:16.303Z,8.48
2023-07-16T06:11:17.703Z,6.63
2023-07-16T06:12:19.115Z,6.32
2023-07-16T06:13:20.537Z,4.93
2023-07-16T06:14:21.912Z,4.63
2023-07-16T06:15:23.353Z,4.05
2023-07-16T06:16:24.857Z,4.97
2023-07-16T06:17:26.289Z,5.50
2023-07-16T06:18:27.735Z,10.45
2023-07-16T06:19:29.313Z,5.53
2023-07-16T06:20:30.759Z,7.45
2023-07-16T06:21:32.166Z,6.88
2023-07-16T06:22:33.753Z,7.07
2023-07-16T06:23:35.188Z,4.97
2023-07-16T06:24:36.601Z,5.65
2023-07-16T06:25:37.949Z,4.28
2023-07-16T06:26:39.307Z,4.97
2023-07-16T06:27:40.696Z,4.03
2023-07-16T06:28:42.073Z,4.75
2023-07-16T06:29:43.485Z,2.20
2023-07-16T06:30:44.864Z,6.10
2023-07-16T06:31:55.668Z,5.13
2023-07-16T06:32:57.191Z,3.60
2023-07-16T06:33:58.635Z,4.95
2023-07-16T06:35:00.060Z,4.00
2023-07-16T06:36:01.500Z,3.88
2023-07-16T06:37:03.007Z,6.45
2023-07-16T06:38:05.235Z,5.43
2023-07-16T06:39:06.636Z,4.80
2023-07-16T06:40:08.344Z,6.80
2023-07-16T06:41:09.747Z,4.75
2023-07-16T06:42:11.147Z,4.90
2023-07-16T06:43:12.488Z,5.13
2023-07-16T06:44:13.868Z,6.63
2023-07-16T06:45:15.254Z,5.60
2023-07-16T06:46:16.951Z,2.88
2023-07-16T06:47:18.703Z,4.90
2023-07-16T06:48:20.140Z,4.13
2023-07-16T06:49:22.259Z,6.05
2023-07-16T06:50:23.635Z,5.47
2023-07-16T06:51:25.123Z,4.72
2023-07-16T06:52:28.492Z,6.18
2023-07-16T06:53:30.066Z,6.72
2023-07-16T06:54:31.463Z,8.18
2023-07-16T06:55:32.820Z,4.80
2023-07-16T06:56:34.227Z,5.18
2023-07-16T06:57:35.631Z,6.10
2023-07-16T06:58:37.016Z,3.78
2023-07-16T06:59:38.375Z,3.60
2023-07-16T07:00:39.874Z,3.47
2023-07-16T07:01:41.352Z,5.13
2023-07-16T07:02:43.050Z,3.70
2023-07-16T07:03:44.522Z,6.55
2023-07-16T07:04:46.879Z,6.30
2023-07-16T07:05:48.582Z,3.88
2023-07-16T07:06:50.177Z,5.78
2023-07-16T07:07:51.738Z,3.00
2023-07-16T07:08:56.268Z,5.20
2023-07-16T07:09:57.726Z,5.15
2023-07-16T07:10:59.116Z,7.82
2023-07-16T07:12:00.544Z,5.35
2023-07-16T07:13:01.919Z,5.00
2023-07-16T07:14:03.333Z,5.63
2023-07-16T07:15:08.292Z,6.47
2023-07-16T07:16:09.764Z,3.80
2023-07-16T07:17:11.241Z,5.78
2023-07-16T07:18:12.703Z,4.85
2023-07-16T07:19:14.074Z,6.20
2023-07-16T07:20:15.617Z,4.38
2023-07-16T07:21:17.037Z,3.63
2023-07-16T07:22:20.434Z,6.53
2023-07-16T07:23:23.687Z,5.78
2023-07-16T07:24:25.319Z,4.93
2023-07-16T07:25:26.709Z,7.57
2023-07-16T07:26:28.302Z,5.60
2023-07-16T07:27:29.730Z,4.85
2023-07-16T07:28:31.203Z,3.70
2023-07-16T07:29:32.637Z,6.05
2023-07-16T07:30:34.103Z,6.55
2023-07-16T07:31:35.789Z,4.45
2023-07-16T07:32:38.093Z,9.10
2023-07-16T07:33:39.687Z,4.70
2023-07-16T07:34:41.105Z,6.05
2023-07-16T07:35:42.601Z,5.88
2023-07-16T07:36:44.013Z,4.35
2023-07-16T07:37:45.413Z,5.13
2023-07-16T07:38:46.936Z,6.25
2023-07-16T07:39:52.432Z,8.15
2023-07-16T07:40:53.791Z,6.38
2023-07-16T07:41:55.229Z,6.30
2023-07-16T07:42:56.683Z,6.40
2023-07-16T07:43:58.099Z,6.45
2023-07-16T07:44:59.596Z,4.70
2023-07-16T07:46:00.960Z,8.23
2023-07-16T07:47:02.609Z,6.25
2023-07-16T07:48:04.291Z,9.07
2023-07-16T07:49:05.729Z,7.35
2023-07-16T07:50:07.529Z,8.50
2023-07-16T07:51:08.928Z,6.47
2023-07-16T07:52:10.366Z,6.95
2023-07-16T07:53:11.814Z,4.45
2023-07-16T07:54:13.254Z,5.53
2023-07-16T07:55:15.097Z,6.60
2023-07-16T07:56:16.805Z,6.10
2023-07-16T07:57:18.631Z,4.20
2023-07-16T07:58:20.268Z,8.65
2023-07-16T07:59:21.647Z,4.95
2023-07-16T08:00:23.194Z,5.97
2023-07-16T08:01:25.226Z,7.03
2023-07-16T08:02:26.962Z,10.70
2023-07-16T08:03:28.559Z,8.40
2023-07-16T08:04:30.333Z,8.05
2023-07-16T08:05:32.287Z,6.35
2023-07-16T08:06:33.749Z,5.10
2023-07-16T08:07:35.125Z,4.53
2023-07-16T08:08:36.537Z,8.27
2023-07-16T08:09:38.578Z,7.70
2023-07-16T08:10:41.798Z,6.40
2023-07-16T08:11:43.163Z,8.32
2023-07-16T08:12:44.647Z,4.25
2023-07-16T08:13:46.022Z,6.63
2023-07-16T08:14:48.379Z,4.68
2023-07-16T08:15:49.915Z,7.85
2023-07-16T08:16:51.383Z,4.90
2023-07-16T08:17:52.897Z,6.80
2023-07-16T08:18:54.379Z,7.22
2023-07-16T08:19:55.810Z,6.45
2023-07-16T08:20:57.242Z,5.93
2023-07-16T08:21:58.677Z,8.05
2023-07-16T08:23:00.106Z,5.75
2023-07-16T08:24:01.550Z,5.05
2023-07-16T08:25:04.371Z,6.88
2023-07-16T08:26:05.783Z,8.40
2023-07-16T08:27:07.204Z,5.80
2023-07-16T08:28:08.914Z,4.90
2023-07-16T08:29:10.332Z,5.32
2023-07-16T08:30:11.783Z,5.03
2023-07-16T08:31:13.961Z,5.47
2023-07-16T08:32:15.437Z,4.60
2023-07-16T08:33:16.896Z,6.90
2023-07-16T08:34:18.334Z,7.60
2023-07-16T08:35:20.964Z,3.88
2023-07-16T08:36:22.353Z,3.83
2023-07-16T08:37:23.706Z,7.43
2023-07-16T08:38:25.203Z,5.63
2023-07-16T08:39:26.879Z,5.32
2023-07-16T08:40:28.742Z,5.45
2023-07-16T08:41:30.193Z,6.03
2023-07-16T08:42:31.639Z,7.78
2023-07-16T08:43:33.989Z,5.03
2023-07-16T08:44:36.212Z,4.90
2023-07-16T08:45:41.036Z,5.70
2023-07-16T08:46:42.489Z,5.70
2023-07-16T08:47:44.021Z,5.88
2023-07-16T08:48:48.984Z,6.57
2023-07-16T08:49:59.404Z,6.93
2023-07-16T08:51:05.631Z,6.63
2023-07-16T08:52:07.663Z,4.72
2023-07-16T08:53:09.120Z,5.85
2023-07-16T08:54:10.942Z,8.40
2023-07-16T08:55:12.371Z,5.15
2023-07-16T08:56:13.754Z,6.18
2023-07-16T08:57:15.704Z,4.78
2023-07-16T08:58:17.124Z,6.07
2023-07-16T08:59:18.830Z,6.85
2023-07-16T09:00:20.534Z,5.50
2023-07-16T09:01:24.171Z,6.20
2023-07-16T09:02:26.066Z,5.95
2023-07-16T09:03:27.696Z,6.18
2023-07-16T09:04:30.842Z,5.13
2023-07-16T09:05:39.873Z,5.20
2023-07-16T09:06:43.056Z,6.72
2023-07-16T09:07:44.437Z,5.93
2023-07-16T09:08:45.823Z,4.82
2023-07-16T09:09:59.456Z,6.05
2023-07-16T09:11:00.904Z,4.75
2023-07-16T09:12:02.825Z,3.92
2023-07-16T09:13:04.335Z,8.32
2023-07-16T09:14:05.721Z,5.28
2023-07-16T09:15:07.456Z,6.18
2023-07-16T09:16:09.132Z,6.75
2023-07-16T09:17:10.665Z,5.43
2023-07-16T09:18:13.101Z,7.80
2023-07-16T09:19:16.415Z,5.63
2023-07-16T09:20:18.134Z,5.68
2023-07-16T09:21:19.504Z,5.95
2023-07-16T09:22:21.334Z,6.95
2023-07-16T09:23:24.440Z,7.85
2023-07-16T09:24:25.911Z,6.93
2023-07-16T09:25:28.343Z,5.97
2023-07-16T09:26:29.702Z,6.18
2023-07-16T09:27:31.977Z,5.82
2023-07-16T09:28:33.709Z,8.98
2023-07-16T09:29:35.117Z,6.13
2023-07-16T09:30:36.530Z,5.43
2023-07-16T09:31:37.906Z,5.13
2023-07-16T09:32:40.813Z,5.97
2023-07-16T09:33:42.261Z,7.30
2023-07-16T09:34:43.623Z,6.60
2023-07-16T09:35:45.446Z,7.35
2023-07-16T09:36:50.412Z,5.95
2023-07-16T09:37:52.349Z,5.60
2023-07-16T09:38:58.293Z,5.90
2023-07-16T09:39:59.712Z,5.03
2023-07-16T09:41:01.409Z,8.98
2023-07-16T09:42:03.314Z,4.47
2023-07-16T09:43:05.860Z,7.10
2023-07-16T09:44:07.391Z,5.47
2023-07-16T09:45:09.946Z,4.28
2023-07-16T09:46:11.364Z,7.47
2023-07-16T09:47:12.906Z,4.50
2023-07-16T09:48:15.681Z,4.72
2023-07-16T09:49:17.204Z,3.95
2023-07-16T09:50:18.751Z,6.85
2023-07-16T09:51:21.013Z,6.63
2023-07-16T09:52:22.429Z,3.45
2023-07-16T09:53:26.226Z,4.78
2023-07-16T09:54:32.737Z,4.93
2023-07-16T09:55:35.461Z,2.58
2023-07-16T09:56:38.887Z,6.90
2023-07-16T09:57:42.422Z,7.65
2023-07-16T09:58:44.232Z,4.38
2023-07-16T09:59:47.818Z,5.22
2023-07-16T10:00:50.040Z,5.47
2023-07-16T10:01:52.485Z,5.55
2023-07-16T10:02:54.132Z,4.22
2023-07-16T10:03:55.473Z,5.07
2023-07-16T10:04:58.385Z,5.25
2023-07-16T10:06:09.734Z,4.53
2023-07-16T10:07:21.188Z,7.13
2023-07-16T10:08:22.627Z,5.28
2023-07-16T10:09:33.045Z,4.82
2023-07-16T10:10:41.473Z,5.22
2023-07-16T10:11:43.358Z,4.85
2023-07-16T10:12:55.467Z,5.45
2023-07-16T10:13:56.824Z,6.82
2023-07-16T10:14:58.372Z,8.05
2023-07-16T10:16:00.210Z,5.30
2023-07-16T10:17:02.994Z,5.78
2023-07-16T10:18:04.501Z,6.68
2023-07-16T10:19:05.931Z,4.20
2023-07-16T10:20:16.946Z,4.85
2023-07-16T10:21:23.188Z,4.75
2023-07-16T10:22:40.868Z,4.97
2023-07-16T10:23:43.383Z,4.78
2023-07-16T10:24:44.967Z,4.60
2023-07-16T10:26:07.330Z,7.53
2023-07-16T10:27:08.808Z,3.80
2023-07-16T10:28:10.178Z,6.05
2023-07-16T10:29:11.559Z,6.03
2023-07-16T10:30:13.343Z,6.22
2023-07-16T10:31:24.716Z,5.90
2023-07-16T10:32:29.802Z,4.82
2023-07-16T10:33:31.134Z,5.13
2023-07-16T10:34:32.483Z,5.78
2023-07-16T10:35:35.614Z,4.85
2023-07-16T10:36:40.300Z,10.13
2023-07-16T10:37:41.683Z,3.90
2023-07-16T10:38:43.576Z,6.63
2023-07-16T10:39:49.416Z,7.00
2023-07-16T10:40:51.004Z,5.25
2023-07-16T10:41:52.411Z,4.47
2023-07-16T10:42:53.928Z,4.18
2023-07-16T10:43:55.847Z,4.80
2023-07-16T10:45:01.342Z,5.47
2023-07-16T10:46:03.683Z,3.65
2023-07-16T10:47:05.577Z,5.53
2023-07-16T10:48:07.116Z,5.13
2023-07-16T10:49:09.038Z,5.95
2023-07-16T10:50:10.869Z,6.72
2023-07-16T10:51:14.733Z,7.75
2023-07-16T10:52:16.182Z,5.22
2023-07-16T10:53:20.145Z,4.82
2023-07-16T10:54:21.635Z,4.70
2023-07-16T10:55:23.803Z,5.20
2023-07-16T10:56:25.541Z,6.03
2023-07-16T10:57:27.394Z,7.15
2023-07-16T10:58:28.750Z,11.00
2023-07-16T10:59:30.328Z,3.40
2023-07-16T11:00:31.783Z,7.03
2023-07-16T11:01:34.215Z,8.55
2023-07-16T11:02:41.371Z,5.38
2023-07-16T11:03:43.026Z,5.10
2023-07-16T11:04:45.232Z,6.03
2023-07-16T11:05:47.405Z,6.70
2023-07-16T11:06:50.931Z,6.53
2023-07-16T11:07:55.007Z,3.97
2023-07-16T11:09:06.398Z,5.78
2023-07-16T11:10:08.230Z,6.13
2023-07-16T11:11:09.591Z,5.03
2023-07-16T11:12:11.768Z,7.55
2023-07-16T11:13:13.122Z,5.85
2023-07-16T11:14:14.542Z,6.38
2023-07-16T11:15:15.979Z,5.53
2023-07-16T11:16:17.858Z,4.53
2023-07-16T11:17:20.622Z,4.97
2023-07-16T11:18:28.209Z,4.57
2023-07-16T11:19:29.590Z,4.95
2023-07-16T11:20:31.501Z,5.20
2023-07-16T11:21:36.485Z,5.50
2023-07-16T11:22:38.771Z,3.85
2023-07-16T11:23:40.264Z,6.05
2023-07-16T11:24:44.374Z,5.00
2023-07-16T11:25:49.515Z,5.13
2023-07-16T11:26:54.768Z,4.22
2023-07-16T11:27:57.253Z,5.07
2023-07-16T11:28:58.739Z,4.95
2023-07-16T11:30:01.021Z,5.80
2023-07-16T11:31:10.836Z,40.50
2023-07-16T11:32:12.311Z,86.90
2023-07-16T11:33:14.165Z,74.68
2023-07-16T11:34:15.697Z,57.92
2023-07-16T11:35:18.232Z,50.83
2023-07-16T11:36:19.750Z,36.50
2023-07-16T11:37:22.104Z,10.35
2023-07-16T11:38:23.606Z,7.05
2023-07-16T11:39:28.830Z,5.65
2023-07-16T11:40:30.266Z,5.20
2023-07-16T11:41:31.836Z,4.40
2023-07-16T11:42:37.391Z,5.35
2023-07-16T11:43:40.977Z,4.32
2023-07-16T11:44:42.318Z,8.15
2023-07-16T11:45:48.335Z,4.30
2023-07-16T11:46:50.974Z,6.50
2023-07-16T11:47:52.442Z,5.28
2023-07-16T11:48:53.813Z,6.22
2023-07-16T11:49:55.591Z,4.35
2023-07-16T11:50:57.079Z,4.30
2023-07-16T11:51:59.222Z,5.32
2023-07-16T11:53:01.942Z,5.65
2023-07-16T11:54:03.625Z,6.60
2023-07-16T11:55:05.232Z,4.07
2023-07-16T11:56:06.693Z,5.53
2023-07-16T11:57:08.240Z,6.38
2023-07-16T11:58:09.609Z,6.05
2023-07-16T11:59:14.101Z,5.35
2023-07-16T12:00:16.111Z,6.40
2023-07-16T12:01:17.625Z,5.18
2023-07-16T12:02:19.181Z,4.30
2023-07-16T12:03:20.737Z,5.13
2023-07-16T12:04:22.249Z,5.45
2023-07-16T12:05:41.919Z,6.00
2023-07-16T12:06:48.964Z,4.55
2023-07-16T12:07:50.348Z,4.38
2023-07-16T12:08:51.717Z,5.05
2023-07-16T12:09:53.188Z,4.72
2023-07-16T12:10:54.577Z,4.22
2023-07-16T12:11:56.029Z,5.05
2023-07-16T12:12:57.459Z,6.40
2023-07-16T12:13:58.908Z,5.13
2023-07-16T12:15:00.985Z,5.80
2023-07-16T12:16:03.395Z,7.30
2023-07-16T12:17:05.061Z,5.18
2023-07-16T12:18:06.522Z,4.60
2023-07-16T12:19:09.671Z,3.70
2023-07-16T12:20:11.266Z,4.15
2023-07-16T12:21:13.754Z,5.85
2023-07-16T12:22:17.068Z,6.07
2023-07-16T12:23:18.595Z,5.65
2023-07-16T12:24:19.948Z,6.80
2023-07-16T12:25:21.498Z,4.25
2023-07-16T12:26:22.919Z,3.63
2023-07-16T12:27:24.316Z,10.25
2023-07-16T12:28:28.159Z,4.30
2023-07-16T12:29:29.723Z,3.95
2023-07-16T12:30:31.136Z,5.68
2023-07-16T12:31:33.019Z,5.20
2023-07-16T12:32:34.806Z,6.10
2023-07-16T12:33:36.230Z,4.38
2023-07-16T12:34:37.840Z,6.57
2023-07-16T12:35:39.462Z,4.30
2023-07-16T12:36:40.833Z,4.55
2023-07-16T12:37:42.234Z,5.43
2023-07-16T12:38:43.606Z,7.38
2023-07-16T12:39:45.031Z,4.43
2023-07-16T12:40:46.514Z,5.30
2023-07-16T12:41:48.008Z,4.13
2023-07-16T12:42:49.486Z,5.03
2023-07-16T12:43:50.908Z,5.45
2023-07-16T12:44:52.463Z,6.88
2023-07-16T12:45:53.828Z,6.65
2023-07-16T12:46:55.271Z,4.70
2023-07-16T12:47:57.193Z,8.15
2023-07-16T12:48:58.802Z,3.65
2023-07-16T12:50:00.294Z,6.63
2023-07-16T12:51:01.723Z,5.32
2023-07-16T12:52:03.173Z,5.78
2023-07-16T12:53:04.578Z,4.80
2023-07-16T12:54:06.247Z,7.00
2023-07-16T12:55:07.814Z,4.80
2023-07-16T12:56:09.285Z,5.80
2023-07-16T12:57:10.726Z,4.85
2023-07-16T12:58:12.140Z,6.05
2023-07-16T12:59:13.569Z,5.65
2023-07-16T13:00:14.973Z,4.65
2023-07-16T13:01:16.450Z,5.50
2023-07-16T13:02:17.840Z,3.83
2023-07-16T13:03:19.249Z,4.78
2023-07-16T13:04:20.692Z,4.28
2023-07-16T13:05:22.086Z,4.25
2023-07-16T13:06:23.489Z,7.45
2023-07-16T13:07:24.830Z,3.72
2023-07-16T13:08:26.499Z,3.65
2023-07-16T13:09:30.286Z,4.43
2023-07-16T13:10:31.815Z,5.00
2023-07-16T13:11:33.261Z,5.70
2023-07-16T13:12:34.631Z,5.22
2023-07-16T13:13:36.544Z,4.95
2023-07-16T13:14:37.903Z,3.90
2023-07-16T13:15:39.371Z,5.10
2023-07-16T13:16:40.852Z,4.38
2023-07-16T13:17:42.281Z,4.88
2023-07-16T13:18:43.715Z,5.38
2023-07-16T13:19:47.354Z,5.88
2023-07-16T13:20:49.804Z,3.67
2023-07-16T13:21:51.291Z,4.72
2023-07-16T13:22:52.721Z,3.70
2023-07-16T13:23:54.132Z,4.18
2023-07-16T13:24:55.631Z,5.28
2023-07-16T13:25:57.235Z,5.60
2023-07-16T13:26:58.747Z,4.15
2023-07-16T13:28:00.266Z,6.88
2023-07-16T13:29:01.759Z,7.07
2023-07-16T13:30:03.310Z,4.90
2023-07-16T13:31:04.810Z,3.33
2023-07-16T13:32:06.396Z,3.80
2023-07-16T13:33:07.883Z,3.70
2023-07-16T13:34:09.313Z,4.15
2023-07-16T13:35:10.780Z,3.47
2023-07-16T13:36:12.274Z,6.05
2023-07-16T13:37:15.085Z,6.47
2023-07-16T13:38:16.537Z,5.95
2023-07-16T13:39:18.045Z,3.53
2023-07-16T13:40:21.671Z,5.80
2023-07-16T13:41:23.026Z,5.35
2023-07-16T13:42:24.611Z,6.20
2023-07-16T13:43:26.123Z,6.30
2023-07-16T13:44:27.493Z,5.35
2023-07-16T13:45:29.041Z,7.10
2023-07-16T13:46:30.458Z,3.35
2023-07-16T13:47:31.894Z,4.75